Byron, Wyoming
Current Conditions -  °F | °C
As of 4:55 AM on Thursday 23 Oct 2014 (Local Time) from KU68 Reporting Station
Clear Clear  
Wind Chill: 39°   Ceiling: Unl
Heat Index: 43°   Visibility: 10mi
Dew Point: 21°   Wind: 6mph
Humidity: 42%   Direction: 120°ESE
Pressure: 30.01"   Gusts: NA
Location:  44.8°N, 108.51°W
Report Text: KU68 231055Z AUTO 12005KT 10SM CLR 06/M06 A3001 RMK AO2 PWINO
Loading
Personal Weather Stations






























Interactive Weather Map
Tropical Storm Tracking
New forecast layout! Learn more

10-Day Weather Forecast

Advertisements
Track Severe Weather on mobile